sensor_id;sensor_type;location;lat;lon;timestamp;P1;durP1;ratioP1;P2;durP2;ratioP2
81656;SDS011;71067;51.482;-0.580;2023-10-09T00:00:12;8.60;;;5.65;;
81656;SDS011;71067;51.482;-0.580;2023-10-09T00:02:56;10.63;;;5.28;;
81656;SDS011;71067;51.482;-0.580;2023-10-09T00:05:29;8.20;;;5.63;;
81656;SDS011;71067;51.482;-0.580;2023-10-09T00:08:24;10.18;;;5.43;;
81656;SDS011;71067;51.482;-0.580;2023-10-09T00:10:57;9.20;;;5.20;;
81656;SDS011;71067;51.482;-0.580;2023-10-09T00:13:45;8.77;;;5.40;;
81656;SDS011;71067;51.482;-0.580;2023-10-09T00:16:17;10.68;;;5.97;;
81656;SDS011;71067;51.482;-0.580;2023-10-09T00:19:03;9.88;;;6.13;;
81656;SDS011;71067;51.482;-0.580;2023-10-09T00:21:42;9.70;;;5.53;;
81656;SDS011;71067;51.482;-0.580;2023-10-09T00:24:11;8.60;;;5.38;;
81656;SDS011;71067;51.482;-0.580;2023-10-09T00:26:45;8.70;;;5.57;;
81656;SDS011;71067;51.482;-0.580;2023-10-09T00:29:11;8.10;;;5.60;;
81656;SDS011;71067;51.482;-0.580;2023-10-09T00:31:47;11.68;;;5.72;;
81656;SDS011;71067;51.482;-0.580;2023-10-09T00:34:20;8.25;;;5.93;;
81656;SDS011;71067;51.482;-0.580;2023-10-09T00:36:47;9.00;;;5.38;;
81656;SDS011;71067;51.482;-0.580;2023-10-09T00:39:15;10.00;;;5.80;;
81656;SDS011;71067;51.482;-0.580;2023-10-09T00:41:58;8.70;;;5.55;;
81656;SDS011;71067;51.482;-0.580;2023-10-09T00:44:26;9.38;;;5.80;;
81656;SDS011;71067;51.482;-0.580;2023-10-09T00:47:03;10.23;;;5.72;;
81656;SDS011;71067;51.482;-0.580;2023-10-09T00:49:46;9.45;;;5.60;;
81656;SDS011;71067;51.482;-0.580;2023-10-09T00:52:13;8.45;;;5.65;;
81656;SDS011;71067;51.482;-0.580;2023-10-09T00:54:47;7.97;;;5.30;;
81656;SDS011;71067;51.482;-0.580;2023-10-09T00:57:16;9.20;;;5.70;;
81656;SDS011;71067;51.482;-0.580;2023-10-09T00:59:43;8.77;;;5.25;;
81656;SDS011;71067;51.482;-0.580;2023-10-09T01:02:13;8.60;;;5.47;;
81656;SDS011;71067;51.482;-0.580;2023-10-09T01:04:44;9.82;;;5.93;;
81656;SDS011;71067;51.482;-0.580;2023-10-09T01:07:09;8.00;;;5.70;;
81656;SDS011;71067;51.482;-0.580;2023-10-09T01:09:40;9.43;;;5.80;;
81656;SDS011;71067;51.482;-0.580;2023-10-09T01:12:08;7.97;;;5.57;;
81656;SDS011;71067;51.482;-0.580;2023-10-09T01:14:41;8.90;;;5.82;;
81656;SDS011;71067;51.482;-0.580;2023-10-09T01:17:08;10.10;;;6.10;;
81656;SDS011;71067;51.482;-0.580;2023-10-09T01:19:34;9.18;;;5.63;;
81656;SDS011;71067;51.482;-0.580;2023-10-09T01:21:59;9.77;;;5.53;;
81656;SDS011;71067;51.482;-0.580;2023-10-09T01:24:37;7.15;;;5.20;;
81656;SDS011;71067;51.482;-0.580;2023-10-09T01:27:04;8.82;;;5.68;;
81656;SDS011;71067;51.482;-0.580;2023-10-09T01:29:36;8.70;;;5.50;;
81656;SDS011;71067;51.482;-0.580;2023-10-09T01:32:01;9.73;;;5.40;;
81656;SDS011;71067;51.482;-0.580;2023-10-09T01:34:30;8.02;;;5.55;;
81656;SDS011;71067;51.482;-0.580;2023-10-09T01:37:17;8.05;;;5.25;;
81656;SDS011;71067;51.482;-0.580;2023-10-09T01:39:51;9.75;;;5.45;;
81656;SDS011;71067;51.482;-0.580;2023-10-09T01:42:18;10.23;;;5.32;;
81656;SDS011;71067;51.482;-0.580;2023-10-09T01:44:59;8.95;;;5.22;;
81656;SDS011;71067;51.482;-0.580;2023-10-09T01:47:35;9.23;;;5.60;;
81656;SDS011;71067;51.482;-0.580;2023-10-09T01:50:03;9.68;;;5.57;;
81656;SDS011;71067;51.482;-0.580;2023-10-09T01:52:38;7.95;;;5.18;;
81656;SDS011;71067;51.482;-0.580;2023-10-09T01:55:04;7.97;;;4.72;;
81656;SDS011;71067;51.482;-0.580;2023-10-09T01:57:32;8.35;;;5.50;;
81656;SDS011;71067;51.482;-0.580;2023-10-09T01:59:59;8.30;;;5.55;;
81656;SDS011;71067;51.482;-0.580;2023-10-09T02:02:24;7.55;;;5.30;;
81656;SDS011;71067;51.482;-0.580;2023-10-09T02:05:04;9.00;;;5.65;;
81656;SDS011;71067;51.482;-0.580;2023-10-09T02:07:30;9.05;;;6.07;;
81656;SDS011;71067;51.482;-0.580;2023-10-09T02:10:05;9.00;;;5.45;;
81656;SDS011;71067;51.482;-0.580;2023-10-09T02:12:36;9.82;;;5.72;;
81656;SDS011;71067;51.482;-0.580;2023-10-09T02:15:02;9.23;;;6.07;;
81656;SDS011;71067;51.482;-0.580;2023-10-09T02:17:40;9.38;;;5.75;;
81656;SDS011;71067;51.482;-0.580;2023-10-09T02:20:17;11.13;;;6.63;;
81656;SDS011;71067;51.482;-0.580;2023-10-09T02:22:53;7.93;;;5.72;;
81656;SDS011;71067;51.482;-0.580;2023-10-09T02:25:19;9.38;;;5.70;;
81656;SDS011;71067;51.482;-0.580;2023-10-09T02:27:46;8.45;;;5.93;;
81656;SDS011;71067;51.482;-0.580;2023-10-09T02:30:18;8.95;;;5.85;;
81656;SDS011;71067;51.482;-0.580;2023-10-09T02:32:52;7.10;;;5.38;;
81656;SDS011;71067;51.482;-0.580;2023-10-09T02:35:19;9.48;;;5.78;;
81656;SDS011;71067;51.482;-0.580;2023-10-09T02:38:03;10.52;;;5.72;;
81656;SDS011;71067;51.482;-0.580;2023-10-09T02:40:32;9.20;;;5.55;;
81656;SDS011;71067;51.482;-0.580;2023-10-09T02:43:06;6.80;;;5.32;;
81656;SDS011;71067;51.482;-0.580;2023-10-09T02:45:42;8.18;;;5.18;;
81656;SDS011;71067;51.482;-0.580;2023-10-09T02:48:15;7.57;;;5.13;;
81656;SDS011;71067;51.482;-0.580;2023-10-09T02:50:50;9.18;;;5.78;;
81656;SDS011;71067;51.482;-0.580;2023-10-09T02:53:16;9.80;;;6.13;;
81656;SDS011;71067;51.482;-0.580;2023-10-09T02:55:44;10.05;;;5.95;;
81656;SDS011;71067;51.482;-0.580;2023-10-09T02:58:28;9.38;;;5.47;;
81656;SDS011;71067;51.482;-0.580;2023-10-09T03:00:57;8.45;;;5.45;;
81656;SDS011;71067;51.482;-0.580;2023-10-09T03:03:23;7.35;;;5.15;;
81656;SDS011;71067;51.482;-0.580;2023-10-09T03:05:48;7.53;;;4.97;;
81656;SDS011;71067;51.482;-0.580;2023-10-09T03:08:14;7.95;;;5.50;;
81656;SDS011;71067;51.482;-0.580;2023-10-09T03:10:41;8.68;;;5.38;;
81656;SDS011;71067;51.482;-0.580;2023-10-09T03:13:07;8.13;;;5.18;;
81656;SDS011;71067;51.482;-0.580;2023-10-09T03:15:32;10.05;;;5.00;;
81656;SDS011;71067;51.482;-0.580;2023-10-09T03:18:01;7.25;;;5.13;;
81656;SDS011;71067;51.482;-0.580;2023-10-09T03:20:27;8.38;;;5.45;;
81656;SDS011;71067;51.482;-0.580;2023-10-09T03:22:53;8.40;;;5.85;;
81656;SDS011;71067;51.482;-0.580;2023-10-09T03:25:19;8.43;;;5.47;;
81656;SDS011;71067;51.482;-0.580;2023-10-09T03:27:44;8.25;;;5.45;;
81656;SDS011;71067;51.482;-0.580;2023-10-09T03:30:14;9.48;;;5.63;;
81656;SDS011;71067;51.482;-0.580;2023-10-09T03:32:50;7.65;;;5.50;;
81656;SDS011;71067;51.482;-0.580;2023-10-09T03:35:20;9.13;;;5.25;;
81656;SDS011;71067;51.482;-0.580;2023-10-09T03:37:51;8.13;;;5.25;;
81656;SDS011;71067;51.482;-0.580;2023-10-09T03:40:18;9.48;;;5.00;;
81656;SDS011;71067;51.482;-0.580;2023-10-09T03:42:46;10.07;;;5.60;;
81656;SDS011;71067;51.482;-0.580;2023-10-09T03:45:11;8.75;;;5.13;;
81656;SDS011;71067;51.482;-0.580;2023-10-09T03:47:56;9.60;;;4.65;;
81656;SDS011;71067;51.482;-0.580;2023-10-09T03:50:39;7.25;;;4.95;;
81656;SDS011;71067;51.482;-0.580;2023-10-09T03:53:08;7.68;;;5.30;;
81656;SDS011;71067;51.482;-0.580;2023-10-09T03:55:36;8.30;;;5.38;;
81656;SDS011;71067;51.482;-0.580;2023-10-09T03:58:03;9.13;;;5.75;;
81656;SDS011;71067;51.482;-0.580;2023-10-09T04:00:29;8.18;;;4.95;;
81656;SDS011;71067;51.482;-0.580;2023-10-09T04:02:55;7.88;;;5.00;;
81656;SDS011;71067;51.482;-0.580;2023-10-09T04:05:22;7.05;;;5.28;;
81656;SDS011;71067;51.482;-0.580;2023-10-09T04:07:48;7.97;;;5.00;;
81656;SDS011;71067;51.482;-0.580;2023-10-09T04:10:14;7.78;;;5.47;;
81656;SDS011;71067;51.482;-0.580;2023-10-09T04:12:58;10.27;;;5.57;;
81656;SDS011;71067;51.482;-0.580;2023-10-09T04:15:25;8.32;;;5.40;;
81656;SDS011;71067;51.482;-0.580;2023-10-09T04:17:55;6.97;;;5.10;;
81656;SDS011;71067;51.482;-0.580;2023-10-09T04:20:21;9.65;;;5.65;;
81656;SDS011;71067;51.482;-0.580;2023-10-09T04:22:47;8.98;;;5.40;;
81656;SDS011;71067;51.482;-0.580;2023-10-09T04:25:21;8.45;;;5.38;;
81656;SDS011;71067;51.482;-0.580;2023-10-09T04:27:53;8.43;;;5.32;;
81656;SDS011;71067;51.482;-0.580;2023-10-09T04:30:33;11.02;;;5.70;;
81656;SDS011;71067;51.482;-0.580;2023-10-09T04:33:05;10.93;;;6.07;;
81656;SDS011;71067;51.482;-0.580;2023-10-09T04:36:01;9.48;;;5.95;;
81656;SDS011;71067;51.482;-0.580;2023-10-09T04:38:45;9.40;;;5.85;;
81656;SDS011;71067;51.482;-0.580;2023-10-09T04:41:23;9.52;;;6.25;;
81656;SDS011;71067;51.482;-0.580;2023-10-09T04:43:59;9.45;;;5.63;;
81656;SDS011;71067;51.482;-0.580;2023-10-09T04:46:47;9.23;;;5.80;;
81656;SDS011;71067;51.482;-0.580;2023-10-09T04:49:32;7.68;;;5.47;;
81656;SDS011;71067;51.482;-0.580;2023-10-09T04:52:17;13.10;;;6.05;;
81656;SDS011;71067;51.482;-0.580;2023-10-09T04:55:07;9.25;;;5.88;;
81656;SDS011;71067;51.482;-0.580;2023-10-09T04:57:33;9.60;;;5.68;;
81656;SDS011;71067;51.482;-0.580;2023-10-09T05:00:08;11.63;;;6.18;;
81656;SDS011;71067;51.482;-0.580;2023-10-09T05:02:49;10.02;;;5.45;;
81656;SDS011;71067;51.482;-0.580;2023-10-09T05:05:25;8.18;;;5.72;;
81656;SDS011;71067;51.482;-0.580;2023-10-09T05:08:09;8.85;;;5.35;;
81656;SDS011;71067;51.482;-0.580;2023-10-09T05:13:22;9.13;;;5.72;;
81656;SDS011;71067;51.482;-0.580;2023-10-09T05:16:08;10.10;;;5.70;;
81656;SDS011;71067;51.482;-0.580;2023-10-09T05:18:40;8.20;;;5.68;;
81656;SDS011;71067;51.482;-0.580;2023-10-09T05:21:06;9.65;;;5.82;;
81656;SDS011;71067;51.482;-0.580;2023-10-09T05:23:38;8.57;;;6.10;;
81656;SDS011;71067;51.482;-0.580;2023-10-09T05:26:14;9.15;;;6.20;;
81656;SDS011;71067;51.482;-0.580;2023-10-09T05:29:02;12.38;;;7.03;;
81656;SDS011;71067;51.482;-0.580;2023-10-09T05:31:44;13.73;;;6.68;;
81656;SDS011;71067;51.482;-0.580;2023-10-09T05:34:20;11.07;;;6.60;;
81656;SDS011;71067;51.482;-0.580;2023-10-09T05:36:46;10.73;;;6.88;;
81656;SDS011;71067;51.482;-0.580;2023-10-09T05:39:13;10.68;;;6.20;;
81656;SDS011;71067;51.482;-0.580;2023-10-09T05:42:05;9.07;;;6.05;;
81656;SDS011;71067;51.482;-0.580;2023-10-09T05:44:43;11.10;;;6.53;;
81656;SDS011;71067;51.482;-0.580;2023-10-09T05:47:41;11.50;;;6.82;;
81656;SDS011;71067;51.482;-0.580;2023-10-09T05:50:25;11.25;;;5.95;;
81656;SDS011;71067;51.482;-0.580;2023-10-09T05:52:52;8.70;;;5.85;;
81656;SDS011;71067;51.482;-0.580;2023-10-09T05:55:19;12.02;;;6.40;;
81656;SDS011;71067;51.482;-0.580;2023-10-09T05:58:04;10.85;;;6.78;;
81656;SDS011;71067;51.482;-0.580;2023-10-09T06:00:41;9.85;;;6.18;;
81656;SDS011;71067;51.482;-0.580;2023-10-09T06:03:25;11.13;;;6.45;;
81656;SDS011;71067;51.482;-0.580;2023-10-09T06:05:51;9.73;;;6.25;;
81656;SDS011;71067;51.482;-0.580;2023-10-09T06:08:24;9.50;;;6.15;;
81656;SDS011;71067;51.482;-0.580;2023-10-09T06:11:23;8.90;;;5.70;;
81656;SDS011;71067;51.482;-0.580;2023-10-09T06:13:58;9.27;;;6.43;;
81656;SDS011;71067;51.482;-0.580;2023-10-09T06:19:12;11.90;;;6.05;;
81656;SDS011;71067;51.482;-0.580;2023-10-09T06:21:44;11.93;;;7.32;;
81656;SDS011;71067;51.482;-0.580;2023-10-09T06:24:28;11.52;;;7.18;;
81656;SDS011;71067;51.482;-0.580;2023-10-09T06:27:07;10.65;;;6.70;;
81656;SDS011;71067;51.482;-0.580;2023-10-09T06:29:39;10.95;;;7.20;;
81656;SDS011;71067;51.482;-0.580;2023-10-09T06:32:14;9.32;;;6.78;;
81656;SDS011;71067;51.482;-0.580;2023-10-09T06:34:46;9.73;;;6.57;;
81656;SDS011;71067;51.482;-0.580;2023-10-09T06:37:21;12.15;;;6.97;;
81656;SDS011;71067;51.482;-0.580;2023-10-09T06:39:51;8.65;;;6.20;;
81656;SDS011;71067;51.482;-0.580;2023-10-09T06:42:23;12.18;;;6.60;;
81656;SDS011;71067;51.482;-0.580;2023-10-09T06:45:11;10.65;;;6.47;;
81656;SDS011;71067;51.482;-0.580;2023-10-09T06:47:46;10.20;;;6.13;;
81656;SDS011;71067;51.482;-0.580;2023-10-09T06:53:18;10.07;;;5.95;;
81656;SDS011;71067;51.482;-0.580;2023-10-09T06:55:44;9.55;;;6.22;;
81656;SDS011;71067;51.482;-0.580;2023-10-09T06:58:14;11.63;;;6.68;;
81656;SDS011;71067;51.482;-0.580;2023-10-09T07:00:48;12.50;;;6.68;;
81656;SDS011;71067;51.482;-0.580;2023-10-09T07:03:19;9.82;;;6.40;;
81656;SDS011;71067;51.482;-0.580;2023-10-09T07:05:44;10.15;;;6.38;;
81656;SDS011;71067;51.482;-0.580;2023-10-09T07:08:30;9.55;;;6.05;;
81656;SDS011;71067;51.482;-0.580;2023-10-09T07:11:02;9.45;;;5.68;;
81656;SDS011;71067;51.482;-0.580;2023-10-09T07:13:46;10.45;;;6.25;;
81656;SDS011;71067;51.482;-0.580;2023-10-09T07:16:22;15.13;;;7.38;;
81656;SDS011;71067;51.482;-0.580;2023-10-09T07:19:03;9.15;;;6.25;;
81656;SDS011;71067;51.482;-0.580;2023-10-09T07:21:49;12.98;;;6.68;;
81656;SDS011;71067;51.482;-0.580;2023-10-09T07:24:19;11.45;;;6.63;;
81656;SDS011;71067;51.482;-0.580;2023-10-09T07:26:49;10.68;;;5.88;;
81656;SDS011;71067;51.482;-0.580;2023-10-09T07:29:18;9.65;;;6.57;;
81656;SDS011;71067;51.482;-0.580;2023-10-09T07:31:52;10.32;;;5.97;;
81656;SDS011;71067;51.482;-0.580;2023-10-09T07:34:37;10.00;;;6.68;;
81656;SDS011;71067;51.482;-0.580;2023-10-09T07:37:17;14.13;;;6.70;;
81656;SDS011;71067;51.482;-0.580;2023-10-09T07:39:48;11.75;;;6.68;;
81656;SDS011;71067;51.482;-0.580;2023-10-09T07:42:23;9.75;;;6.22;;
81656;SDS011;71067;51.482;-0.580;2023-10-09T07:44:58;13.13;;;6.43;;
81656;SDS011;71067;51.482;-0.580;2023-10-09T07:47:36;10.77;;;6.32;;
81656;SDS011;71067;51.482;-0.580;2023-10-09T07:50:20;10.25;;;5.68;;
81656;SDS011;71067;51.482;-0.580;2023-10-09T07:52:47;10.20;;;6.10;;
81656;SDS011;71067;51.482;-0.580;2023-10-09T07:55:14;10.88;;;6.30;;
81656;SDS011;71067;51.482;-0.580;2023-10-09T07:57:52;9.18;;;5.75;;
81656;SDS011;71067;51.482;-0.580;2023-10-09T08:00:18;10.85;;;6.50;;
81656;SDS011;71067;51.482;-0.580;2023-10-09T08:03:01;11.07;;;6.10;;
81656;SDS011;71067;51.482;-0.580;2023-10-09T08:05:28;11.80;;;6.35;;
81656;SDS011;71067;51.482;-0.580;2023-10-09T08:07:59;10.48;;;6.38;;
81656;SDS011;71067;51.482;-0.580;2023-10-09T08:11:03;10.23;;;6.30;;
81656;SDS011;71067;51.482;-0.580;2023-10-09T08:13:48;13.77;;;6.65;;
81656;SDS011;71067;51.482;-0.580;2023-10-09T08:16:14;11.15;;;6.38;;
81656;SDS011;71067;51.482;-0.580;2023-10-09T08:18:46;10.20;;;7.10;;
81656;SDS011;71067;51.482;-0.580;2023-10-09T08:21:16;11.98;;;7.70;;
81656;SDS011;71067;51.482;-0.580;2023-10-09T08:23:41;11.85;;;7.18;;
81656;SDS011;71067;51.482;-0.580;2023-10-09T08:26:18;12.00;;;7.38;;
81656;SDS011;71067;51.482;-0.580;2023-10-09T08:29:12;11.70;;;6.72;;
81656;SDS011;71067;51.482;-0.580;2023-10-09T08:31:45;10.30;;;6.57;;
81656;SDS011;71067;51.482;-0.580;2023-10-09T08:34:10;13.23;;;7.00;;
81656;SDS011;71067;51.482;-0.580;2023-10-09T08:36:50;12.32;;;6.68;;
81656;SDS011;71067;51.482;-0.580;2023-10-09T08:39:22;11.57;;;6.00;;
81656;SDS011;71067;51.482;-0.580;2023-10-09T08:41:52;12.18;;;6.80;;
81656;SDS011;71067;51.482;-0.580;2023-10-09T08:44:21;12.45;;;6.25;;
81656;SDS011;71067;51.482;-0.580;2023-10-09T08:46:50;13.02;;;6.53;;
81656;SDS011;71067;51.482;-0.580;2023-10-09T08:49:16;10.15;;;6.28;;
81656;SDS011;71067;51.482;-0.580;2023-10-09T08:51:42;13.02;;;6.93;;
81656;SDS011;71067;51.482;-0.580;2023-10-09T08:54:11;9.32;;;5.90;;
81656;SDS011;71067;51.482;-0.580;2023-10-09T08:56:39;11.00;;;6.47;;
81656;SDS011;71067;51.482;-0.580;2023-10-09T08:59:14;11.70;;;6.22;;
81656;SDS011;71067;51.482;-0.580;2023-10-09T09:01:41;11.80;;;6.18;;
81656;SDS011;71067;51.482;-0.580;2023-10-09T09:04:06;11.10;;;6.07;;
81656;SDS011;71067;51.482;-0.580;2023-10-09T09:06:39;10.02;;;6.10;;
81656;SDS011;71067;51.482;-0.580;2023-10-09T09:09:09;12.13;;;6.57;;
81656;SDS011;71067;51.482;-0.580;2023-10-09T09:11:42;12.27;;;6.20;;
81656;SDS011;71067;51.482;-0.580;2023-10-09T09:14:14;10.23;;;6.13;;
81656;SDS011;71067;51.482;-0.580;2023-10-09T09:16:44;10.60;;;6.43;;
81656;SDS011;71067;51.482;-0.580;2023-10-09T09:19:13;10.95;;;6.70;;
81656;SDS011;71067;51.482;-0.580;2023-10-09T09:21:49;10.77;;;5.47;;
81656;SDS011;71067;51.482;-0.580;2023-10-09T09:24:19;11.15;;;6.00;;
81656;SDS011;71067;51.482;-0.580;2023-10-09T09:26:51;10.75;;;5.88;;
81656;SDS011;71067;51.482;-0.580;2023-10-09T09:32:03;9.27;;;5.35;;
81656;SDS011;71067;51.482;-0.580;2023-10-09T09:34:51;9.77;;;6.05;;
81656;SDS011;71067;51.482;-0.580;2023-10-09T09:37:26;10.82;;;6.63;;
81656;SDS011;71067;51.482;-0.580;2023-10-09T09:40:02;13.65;;;6.03;;
81656;SDS011;71067;51.482;-0.580;2023-10-09T09:42:40;11.95;;;6.47;;
81656;SDS011;71067;51.482;-0.580;2023-10-09T09:45:10;9.20;;;6.10;;
81656;SDS011;71067;51.482;-0.580;2023-10-09T09:47:36;12.82;;;6.40;;
81656;SDS011;71067;51.482;-0.580;2023-10-09T09:50:02;10.77;;;6.20;;
81656;SDS011;71067;51.482;-0.580;2023-10-09T09:52:37;12.70;;;7.10;;
81656;SDS011;71067;51.482;-0.580;2023-10-09T09:55:03;12.68;;;6.50;;
81656;SDS011;71067;51.482;-0.580;2023-10-09T09:57:30;11.38;;;6.38;;
81656;SDS011;71067;51.482;-0.580;2023-10-09T10:00:04;10.98;;;6.95;;
81656;SDS011;71067;51.482;-0.580;2023-10-09T10:02:42;12.40;;;6.45;;
81656;SDS011;71067;51.482;-0.580;2023-10-09T10:05:10;12.82;;;6.85;;
81656;SDS011;71067;51.482;-0.580;2023-10-09T10:07:37;11.60;;;6.32;;
81656;SDS011;71067;51.482;-0.580;2023-10-09T10:10:53;11.65;;;6.07;;
81656;SDS011;71067;51.482;-0.580;2023-10-09T10:13:02;13.52;;;6.85;;
81656;SDS011;71067;51.482;-0.580;2023-10-09T10:18:32;13.73;;;6.90;;
81656;SDS011;71067;51.482;-0.580;2023-10-09T10:23:37;10.93;;;6.93;;
81656;SDS011;71067;51.482;-0.580;2023-10-09T10:26:18;14.07;;;6.20;;
81656;SDS011;71067;51.482;-0.580;2023-10-09T10:29:13;9.45;;;5.68;;
81656;SDS011;71067;51.482;-0.580;2023-10-09T10:32:00;10.85;;;5.65;;
81656;SDS011;71067;51.482;-0.580;2023-10-09T10:37:21;11.40;;;5.93;;
81656;SDS011;71067;51.482;-0.580;2023-10-09T10:39:53;12.43;;;5.80;;
81656;SDS011;71067;51.482;-0.580;2023-10-09T10:42:24;10.10;;;5.78;;
81656;SDS011;71067;51.482;-0.580;2023-10-09T10:45:01;10.18;;;5.68;;
81656;SDS011;71067;51.482;-0.580;2023-10-09T10:47:28;10.30;;;4.95;;
81656;SDS011;71067;51.482;-0.580;2023-10-09T10:50:00;9.95;;;5.53;;
81656;SDS011;71067;51.482;-0.580;2023-10-09T10:52:36;10.40;;;5.22;;
81656;SDS011;71067;51.482;-0.580;2023-10-09T10:55:08;9.27;;;5.40;;
81656;SDS011;71067;51.482;-0.580;2023-10-09T10:57:53;8.02;;;4.70;;
81656;SDS011;71067;51.482;-0.580;2023-10-09T11:00:19;9.02;;;4.95;;
81656;SDS011;71067;51.482;-0.580;2023-10-09T11:03:10;10.20;;;4.50;;
81656;SDS011;71067;51.482;-0.580;2023-10-09T11:05:44;8.85;;;4.60;;
81656;SDS011;71067;51.482;-0.580;2023-10-09T11:08:17;9.57;;;5.13;;
81656;SDS011;71067;51.482;-0.580;2023-10-09T11:10:48;9.15;;;4.45;;
81656;SDS011;71067;51.482;-0.580;2023-10-09T11:13:21;11.73;;;5.50;;
81656;SDS011;71067;51.482;-0.580;2023-10-09T11:19:00;12.20;;;5.50;;
81656;SDS011;71067;51.482;-0.580;2023-10-09T11:21:37;11.13;;;6.05;;
81656;SDS011;71067;51.482;-0.580;2023-10-09T11:24:07;11.77;;;6.30;;
81656;SDS011;71067;51.482;-0.580;2023-10-09T11:26:51;11.30;;;5.90;;
81656;SDS011;71067;51.482;-0.580;2023-10-09T11:29:29;12.52;;;5.63;;
81656;SDS011;71067;51.482;-0.580;2023-10-09T11:32:15;9.10;;;4.75;;
81656;SDS011;71067;51.482;-0.580;2023-10-09T11:34:47;10.25;;;4.53;;
81656;SDS011;71067;51.482;-0.580;2023-10-09T11:37:17;10.80;;;5.65;;
81656;SDS011;71067;51.482;-0.580;2023-10-09T11:39:53;11.85;;;6.82;;
81656;SDS011;71067;51.482;-0.580;2023-10-09T11:42:19;11.60;;;6.03;;
81656;SDS011;71067;51.482;-0.580;2023-10-09T11:45:06;11.07;;;6.72;;
81656;SDS011;71067;51.482;-0.580;2023-10-09T11:47:45;10.98;;;6.35;;
81656;SDS011;71067;51.482;-0.580;2023-10-09T11:50:42;8.55;;;5.47;;
81656;SDS011;71067;51.482;-0.580;2023-10-09T11:53:14;9.45;;;5.20;;
81656;SDS011;71067;51.482;-0.580;2023-10-09T11:55:46;8.95;;;4.60;;
81656;SDS011;71067;51.482;-0.580;2023-10-09T11:58:14;8.75;;;4.72;;
81656;SDS011;71067;51.482;-0.580;2023-10-09T12:00:49;10.65;;;4.88;;
81656;SDS011;71067;51.482;-0.580;2023-10-09T12:03:16;8.20;;;4.50;;
81656;SDS011;71067;51.482;-0.580;2023-10-09T12:05:42;7.50;;;4.47;;
81656;SDS011;71067;51.482;-0.580;2023-10-09T12:08:11;6.93;;;4.20;;
81656;SDS011;71067;51.482;-0.580;2023-10-09T12:13:06;9.27;;;4.23;;
81656;SDS011;71067;51.482;-0.580;2023-10-09T12:15:32;9.45;;;4.55;;
81656;SDS011;71067;51.482;-0.580;2023-10-09T12:18:05;9.15;;;4.30;;
81656;SDS011;71067;51.482;-0.580;2023-10-09T12:20:40;11.50;;;4.82;;
81656;SDS011;71067;51.482;-0.580;2023-10-09T12:23:06;7.05;;;4.32;;
81656;SDS011;71067;51.482;-0.580;2023-10-09T12:25:32;7.10;;;4.20;;
81656;SDS011;71067;51.482;-0.580;2023-10-09T12:28:00;9.73;;;4.40;;
81656;SDS011;71067;51.482;-0.580;2023-10-09T12:30:29;9.05;;;4.28;;
81656;SDS011;71067;51.482;-0.580;2023-10-09T12:32:55;8.82;;;4.22;;
81656;SDS011;71067;51.482;-0.580;2023-10-09T12:35:25;8.38;;;3.88;;
81656;SDS011;71067;51.482;-0.580;2023-10-09T12:37:53;7.68;;;4.55;;
81656;SDS011;71067;51.482;-0.580;2023-10-09T12:40:23;8.38;;;4.72;;
81656;SDS011;71067;51.482;-0.580;2023-10-09T12:42:56;10.25;;;4.53;;
81656;SDS011;71067;51.482;-0.580;2023-10-09T12:45:25;9.80;;;4.75;;
81656;SDS011;71067;51.482;-0.580;2023-10-09T12:47:57;9.48;;;4.55;;
81656;SDS011;71067;51.482;-0.580;2023-10-09T12:50:27;7.22;;;4.38;;
81656;SDS011;71067;51.482;-0.580;2023-10-09T12:52:56;10.45;;;5.03;;
81656;SDS011;71067;51.482;-0.580;2023-10-09T12:55:22;8.95;;;4.70;;
81656;SDS011;71067;51.482;-0.580;2023-10-09T12:57:56;8.98;;;4.43;;
81656;SDS011;71067;51.482;-0.580;2023-10-09T13:00:26;8.32;;;4.63;;
81656;SDS011;71067;51.482;-0.580;2023-10-09T13:02:51;9.30;;;4.75;;
81656;SDS011;71067;51.482;-0.580;2023-10-09T13:05:17;7.63;;;4.47;;
81656;SDS011;71067;51.482;-0.580;2023-10-09T13:07:51;7.00;;;4.43;;
81656;SDS011;71067;51.482;-0.580;2023-10-09T13:10:18;9.13;;;4.50;;
81656;SDS011;71067;51.482;-0.580;2023-10-09T13:12:44;8.70;;;4.50;;
81656;SDS011;71067;51.482;-0.580;2023-10-09T13:15:10;8.50;;;4.40;;
81656;SDS011;71067;51.482;-0.580;2023-10-09T13:17:39;10.93;;;4.32;;
81656;SDS011;71067;51.482;-0.580;2023-10-09T13:20:04;7.07;;;3.75;;
81656;SDS011;71067;51.482;-0.580;2023-10-09T13:22:38;7.85;;;4.35;;
81656;SDS011;71067;51.482;-0.580;2023-10-09T13:25:05;8.88;;;4.15;;
81656;SDS011;71067;51.482;-0.580;2023-10-09T13:27:31;8.65;;;4.68;;
81656;SDS011;71067;51.482;-0.580;2023-10-09T13:29:59;8.02;;;4.03;;
81656;SDS011;71067;51.482;-0.580;2023-10-09T13:32:33;8.13;;;4.30;;
81656;SDS011;71067;51.482;-0.580;2023-10-09T13:35:02;8.65;;;3.97;;
81656;SDS011;71067;51.482;-0.580;2023-10-09T13:37:31;8.85;;;3.75;;
81656;SDS011;71067;51.482;-0.580;2023-10-09T13:40:02;10.88;;;4.80;;
81656;SDS011;71067;51.482;-0.580;2023-10-09T13:42:36;11.23;;;4.40;;
81656;SDS011;71067;51.482;-0.580;2023-10-09T13:45:03;8.95;;;4.25;;
81656;SDS011;71067;51.482;-0.580;2023-10-09T13:47:41;6.60;;;3.90;;
81656;SDS011;71067;51.482;-0.580;2023-10-09T13:50:09;7.13;;;3.78;;
81656;SDS011;71067;51.482;-0.580;2023-10-09T13:52:35;7.25;;;3.83;;
81656;SDS011;71067;51.482;-0.580;2023-10-09T13:55:04;7.63;;;4.05;;
81656;SDS011;71067;51.482;-0.580;2023-10-09T13:57:42;6.90;;;3.95;;
81656;SDS011;71067;51.482;-0.580;2023-10-09T14:00:11;7.68;;;4.60;;
81656;SDS011;71067;51.482;-0.580;2023-10-09T14:02:42;7.97;;;4.35;;
81656;SDS011;71067;51.482;-0.580;2023-10-09T14:05:08;7.40;;;3.90;;
81656;SDS011;71067;51.482;-0.580;2023-10-09T14:07:33;8.02;;;4.38;;
81656;SDS011;71067;51.482;-0.580;2023-10-09T14:09:59;7.47;;;3.80;;
81656;SDS011;71067;51.482;-0.580;2023-10-09T14:12:42;8.10;;;3.90;;
81656;SDS011;71067;51.482;-0.580;2023-10-09T14:15:11;10.77;;;4.22;;
81656;SDS011;71067;51.482;-0.580;2023-10-09T14:17:42;7.88;;;4.03;;
81656;SDS011;71067;51.482;-0.580;2023-10-09T14:20:07;6.57;;;4.00;;
81656;SDS011;71067;51.482;-0.580;2023-10-09T14:22:55;8.93;;;4.25;;
81656;SDS011;71067;51.482;-0.580;2023-10-09T14:25:20;8.70;;;4.00;;
81656;SDS011;71067;51.482;-0.580;2023-10-09T14:27:46;7.60;;;3.92;;
81656;SDS011;71067;51.482;-0.580;2023-10-09T14:30:13;9.50;;;4.10;;
81656;SDS011;71067;51.482;-0.580;2023-10-09T14:32:47;9.20;;;3.95;;
81656;SDS011;71067;51.482;-0.580;2023-10-09T14:35:16;9.27;;;4.32;;
81656;SDS011;71067;51.482;-0.580;2023-10-09T14:37:46;8.35;;;4.05;;
81656;SDS011;71067;51.482;-0.580;2023-10-09T14:40:11;6.63;;;4.03;;
81656;SDS011;71067;51.482;-0.580;2023-10-09T14:42:45;7.60;;;3.90;;
81656;SDS011;71067;51.482;-0.580;2023-10-09T14:45:11;8.52;;;4.00;;
81656;SDS011;71067;51.482;-0.580;2023-10-09T14:47:46;8.18;;;3.78;;
81656;SDS011;71067;51.482;-0.580;2023-10-09T14:50:12;8.23;;;4.20;;
81656;SDS011;71067;51.482;-0.580;2023-10-09T14:52:38;8.75;;;4.47;;
81656;SDS011;71067;51.482;-0.580;2023-10-09T14:55:05;7.63;;;4.20;;
81656;SDS011;71067;51.482;-0.580;2023-10-09T14:57:31;9.20;;;4.25;;
81656;SDS011;71067;51.482;-0.580;2023-10-09T14:59:59;7.28;;;4.30;;
81656;SDS011;71067;51.482;-0.580;2023-10-09T15:02:26;8.70;;;4.50;;
81656;SDS011;71067;51.482;-0.580;2023-10-09T15:04:51;7.68;;;4.53;;
81656;SDS011;71067;51.482;-0.580;2023-10-09T15:07:18;8.15;;;4.35;;
81656;SDS011;71067;51.482;-0.580;2023-10-09T15:09:43;9.13;;;4.55;;
81656;SDS011;71067;51.482;-0.580;2023-10-09T15:12:09;8.38;;;4.35;;
81656;SDS011;71067;51.482;-0.580;2023-10-09T15:14:36;9.48;;;5.05;;
81656;SDS011;71067;51.482;-0.580;2023-10-09T15:17:02;9.18;;;4.25;;
81656;SDS011;71067;51.482;-0.580;2023-10-09T15:19:27;8.13;;;4.32;;
81656;SDS011;71067;51.482;-0.580;2023-10-09T15:21:56;6.85;;;4.60;;
81656;SDS011;71067;51.482;-0.580;2023-10-09T15:24:23;8.13;;;4.30;;